Time;durP1;ratioP1;P1;durP2;ratioP2;P2;SDS_P1;SDS_P2;PMS_P1;PMS_P2;Temp;Humidity;BMP_temperature;BMP_pressure;BME280_temperature;BME280_humidity;BME280_pressure;Samples;Min_cycle;Max_cycle;Signal;HPM_P1;HPM_P2
2021/04/04 00:01:29;;;;;;;17.02;6.30;;;7.40;99.90;;;;;;5070364;28;20227;-69
2021/04/04 00:03:56;;;;;;;18.92;5.53;;;7.40;99.90;;;;;;5072306;28;20282;-68
2021/04/04 00:06:23;;;;;;;14.73;6.18;;;7.40;99.90;;;;;;5073564;28;20230;-69
2021/04/04 00:08:49;;;;;;;25.85;7.25;;;7.30;99.90;;;;;;5067301;28;20336;-70
2021/04/04 00:11:16;;;;;;;20.05;6.28;;;7.30;99.90;;;;;;5074643;28;20205;-67
2021/04/04 00:13:43;;;;;;;13.35;6.43;;;7.30;99.90;;;;;;5068905;28;20204;-70
2021/04/04 00:16:11;;;;;;;29.58;7.65;;;7.30;99.90;;;;;;5062476;28;20245;-68
2021/04/04 00:18:37;;;;;;;24.50;7.30;;;7.30;99.90;;;;;;5057377;28;20289;-69
2021/04/04 00:21:04;;;;;;;11.05;5.53;;;7.30;99.90;;;;;;5060902;28;20200;-70
2021/04/04 00:23:31;;;;;;;24.52;7.63;;;7.30;99.90;;;;;;5064043;28;20204;-71
2021/04/04 00:25:58;;;;;;;37.67;8.38;;;7.20;99.90;;;;;;5064657;28;20221;-69
2021/04/04 00:28:24;;;;;;;14.65;8.40;;;7.20;99.90;;;;;;5066034;28;20208;-72
2021/04/04 00:30:51;;;;;;;27.15;6.35;;;7.20;99.90;;;;;;5072123;28;20210;-69
2021/04/04 00:33:19;;;;;;;18.30;6.00;;;7.20;99.90;;;;;;5069069;28;20204;-71
2021/04/04 00:35:46;;;;;;;15.55;6.20;;;7.20;99.90;;;;;;5063194;28;20232;-71
2021/04/04 00:38:13;;;;;;;35.75;9.60;;;7.20;99.90;;;;;;5064879;28;20209;-69
2021/04/04 00:40:40;;;;;;;14.98;5.60;;;7.30;99.90;;;;;;5074435;28;20599;-68
2021/04/04 00:43:07;;;;;;;17.23;5.65;;;7.20;99.90;;;;;;5070167;28;20204;-68
2021/04/04 00:45:37;;;;;;;16.35;6.40;;;7.30;99.90;;;;;;5075078;28;20710;-70
2021/04/04 00:48:06;;;;;;;22.33;8.00;;;7.30;99.90;;;;;;5069970;28;20205;-70
2021/04/04 00:50:37;;;;;;;20.65;6.18;;;7.30;99.90;;;;;;5073905;28;20647;-71
2021/04/04 00:53:04;;;;;;;21.70;6.43;;;7.40;99.90;;;;;;5067019;28;20215;-69
2021/04/04 00:55:32;;;;;;;15.73;6.32;;;7.40;99.90;;;;;;5069146;28;20222;-70
2021/04/04 00:57:59;;;;;;;30.15;7.50;;;7.30;99.90;;;;;;5070872;28;20208;-70
2021/04/04 01:00:28;;;;;;;23.45;6.88;;;7.30;99.90;;;;;;5069744;28;20200;-69
2021/04/04 01:02:55;;;;;;;18.33;5.63;;;7.30;99.90;;;;;;5068180;28;20539;-69
2021/04/04 01:05:28;;;;;;;18.75;5.68;;;7.30;99.90;;;;;;5065304;28;20302;-71
2021/04/04 01:07:57;;;;;;;28.90;6.70;;;7.30;99.90;;;;;;5074068;28;20200;-69
2021/04/04 01:10:29;;;;;;;15.15;6.15;;;7.40;99.90;;;;;;5068270;28;20231;-69
2021/04/04 01:13:06;;;;;;;30.13;8.13;;;7.40;99.90;;;;;;5071379;28;20204;-71
2021/04/04 01:15:35;;;;;;;16.10;6.45;;;7.30;99.90;;;;;;5056347;28;20686;-69
2021/04/04 01:18:07;;;;;;;17.38;5.05;;;7.30;99.90;;;;;;5071604;28;20209;-70
2021/04/04 01:20:40;;;;;;;16.27;6.10;;;7.30;99.90;;;;;;5061331;28;20209;-71
2021/04/04 01:23:52;;;;;;;13.70;6.15;;;7.20;99.90;;;;;;5075131;28;20497;-70
2021/04/04 01:26:29;;;;;;;25.25;7.40;;;7.20;99.90;;;;;;5036961;28;20580;-70
2021/04/04 01:28:58;;;;;;;15.25;6.90;;;7.20;99.90;;;;;;5072684;28;20212;-71
2021/04/04 01:31:27;;;;;;;14.45;6.90;;;7.30;99.90;;;;;;5068961;28;20205;-70
2021/04/04 01:33:56;;;;;;;13.35;7.28;;;7.30;99.90;;;;;;5071623;28;20226;-70
2021/04/04 01:36:24;;;;;;;19.98;6.10;;;7.30;99.90;;;;;;5072815;28;20253;-69
2021/04/04 01:38:52;;;;;;;12.55;6.25;;;7.30;99.90;;;;;;5060185;28;20206;-69
2021/04/04 01:41:23;;;;;;;26.52;5.60;;;7.20;99.90;;;;;;5063122;28;20206;-68
2021/04/04 01:43:52;;;;;;;16.58;4.45;;;7.30;99.90;;;;;;5074519;28;20201;-70
2021/04/04 01:46:21;;;;;;;16.10;4.90;;;7.30;99.90;;;;;;5063494;28;20230;-69
2021/04/04 01:48:48;;;;;;;21.25;5.68;;;7.30;99.90;;;;;;5071694;28;20201;-69
2021/04/04 01:51:15;;;;;;;17.48;6.10;;;7.30;99.90;;;;;;5072759;28;20203;-69
2021/04/04 01:53:44;;;;;;;11.57;4.57;;;7.30;99.90;;;;;;5072010;28;20203;-71
2021/04/04 01:56:11;;;;;;;26.33;6.22;;;7.30;99.90;;;;;;5065192;28;20315;-69
2021/04/04 01:58:39;;;;;;;13.45;5.20;;;7.20;99.90;;;;;;5066856;28;20258;-69
2021/04/04 02:01:07;;;;;;;25.30;6.30;;;7.20;99.90;;;;;;5072294;28;20213;-71
2021/04/04 02:03:35;;;;;;;21.80;8.15;;;7.30;99.90;;;;;;5063929;28;20283;-70
2021/04/04 02:06:04;;;;;;;15.48;4.97;;;7.30;99.90;;;;;;5071162;28;20251;-71
2021/04/04 02:08:32;;;;;;;19.30;5.40;;;7.30;99.90;;;;;;5070490;28;20211;-71
2021/04/04 02:11:01;;;;;;;20.55;6.45;;;7.30;99.90;;;;;;5073561;28;20201;-70
2021/04/04 02:13:28;;;;;;;13.55;5.10;;;7.30;99.90;;;;;;5072986;28;20235;-70
2021/04/04 02:15:59;;;;;;;17.63;7.93;;;7.30;99.90;;;;;;5066350;28;20257;-69
2021/04/04 02:18:26;;;;;;;14.18;4.20;;;7.30;99.90;;;;;;5060441;28;20205;-70
2021/04/04 02:20:57;;;;;;;17.90;5.25;;;7.30;99.90;;;;;;5067960;28;20561;-71
2021/04/04 02:23:25;;;;;;;23.67;5.50;;;7.20;99.90;;;;;;5060005;28;20227;-71
2021/04/04 02:25:53;;;;;;;15.68;5.68;;;7.30;99.90;;;;;;5071574;28;20592;-70
2021/04/04 02:28:20;;;;;;;13.02;4.30;;;7.20;99.90;;;;;;5072105;28;20227;-71
2021/04/04 02:30:47;;;;;;;15.63;5.00;;;7.10;99.90;;;;;;5070632;28;20208;-70
2021/04/04 02:33:23;;;;;;;16.30;4.65;;;7.20;99.90;;;;;;5066926;28;20730;-70
2021/04/04 02:35:55;;;;;;;15.23;5.30;;;7.20;99.90;;;;;;5066698;28;20303;-69
2021/04/04 02:38:30;;;;;;;10.82;4.03;;;7.20;99.90;;;;;;5057750;28;20260;-68
2021/04/04 02:40:58;;;;;;;20.58;5.45;;;7.20;99.90;;;;;;5055281;28;20214;-70
2021/04/04 02:43:29;;;;;;;21.20;4.82;;;7.20;99.90;;;;;;5065290;28;20627;-71
2021/04/04 02:46:00;;;;;;;22.60;5.88;;;7.20;99.90;;;;;;5063821;28;20311;-70
2021/04/04 02:48:30;;;;;;;20.30;5.35;;;7.20;99.90;;;;;;5067725;28;20199;-68
2021/04/04 02:51:02;;;;;;;13.80;4.50;;;7.20;99.90;;;;;;5061009;28;20226;-69
2021/04/04 02:53:30;;;;;;;10.65;4.75;;;7.20;99.90;;;;;;5069929;28;20662;-72
2021/04/04 02:55:59;;;;;;;14.15;3.92;;;7.20;99.90;;;;;;5065645;28;20646;-71
2021/04/04 02:58:28;;;;;;;24.30;5.80;;;7.20;99.90;;;;;;5061847;28;20277;-68
2021/04/04 03:00:57;;;;;;;21.92;5.68;;;7.10;99.90;;;;;;5067367;28;20658;-73
2021/04/04 03:03:27;;;;;;;17.95;6.05;;;7.10;99.90;;;;;;5060706;28;20207;-70
2021/04/04 03:05:56;;;;;;;16.08;5.57;;;7.10;99.90;;;;;;5066248;28;20246;-69
2021/04/04 03:08:26;;;;;;;20.35;6.35;;;7.10;99.90;;;;;;5062718;28;20258;-70
2021/04/04 03:10:55;;;;;;;16.92;6.05;;;7.10;99.90;;;;;;5057777;28;20200;-70
2021/04/04 03:13:23;;;;;;;19.02;6.18;;;7.10;99.90;;;;;;5064036;28;20705;-69
2021/04/04 03:15:52;;;;;;;21.02;5.68;;;7.10;99.90;;;;;;5065346;28;20226;-70
2021/04/04 03:18:20;;;;;;;15.07;4.82;;;7.10;99.90;;;;;;5071374;28;20297;-68
2021/04/04 03:20:48;;;;;;;16.25;6.25;;;7.20;99.90;;;;;;5071903;28;20208;-69
2021/04/04 03:23:17;;;;;;;10.93;4.15;;;7.30;99.90;;;;;;5063133;28;20243;-71
2021/04/04 03:25:45;;;;;;;22.95;5.75;;;7.30;99.90;;;;;;5067300;28;20304;-68
2021/04/04 03:28:14;;;;;;;13.77;4.88;;;7.30;99.90;;;;;;5063815;28;20211;-69
2021/04/04 03:30:45;;;;;;;18.05;5.00;;;7.20;99.90;;;;;;5071082;28;20199;-68
2021/04/04 03:33:16;;;;;;;24.92;5.78;;;7.30;99.90;;;;;;5069825;28;20210;-69
2021/04/04 03:35:45;;;;;;;18.88;5.07;;;7.30;99.90;;;;;;5071425;28;20271;-69
2021/04/04 03:38:13;;;;;;;17.58;4.70;;;7.30;99.90;;;;;;5067840;28;20203;-71
2021/04/04 03:40:40;;;;;;;14.73;3.58;;;7.30;99.90;;;;;;5065181;28;20266;-70
2021/04/04 03:43:10;;;;;;;16.15;4.95;;;7.40;99.90;;;;;;5066781;28;20211;-69
2021/04/04 03:45:38;;;;;;;13.02;3.60;;;7.40;99.90;;;;;;5070038;28;20229;-70
2021/04/04 03:48:06;;;;;;;12.27;4.72;;;7.30;99.90;;;;;;5063141;28;20196;-68
2021/04/04 03:50:35;;;;;;;17.10;5.20;;;7.30;99.90;;;;;;5069075;28;20323;-69
2021/04/04 03:53:02;;;;;;;9.75;4.13;;;7.30;99.90;;;;;;5071408;28;20200;-68
2021/04/04 03:55:30;;;;;;;10.82;4.57;;;7.20;99.90;;;;;;5070151;28;20720;-69
2021/04/04 03:57:58;;;;;;;11.82;5.28;;;7.20;99.90;;;;;;5071273;28;20282;-70
2021/04/04 04:00:29;;;;;;;12.50;3.78;;;7.10;99.90;;;;;;5068642;28;20196;-71
2021/04/04 04:02:57;;;;;;;13.05;3.85;;;7.10;99.90;;;;;;5070853;28;20610;-67
2021/04/04 04:05:24;;;;;;;12.30;5.15;;;7.10;99.90;;;;;;5065951;28;20223;-69
2021/04/04 04:07:52;;;;;;;8.32;3.58;;;7.10;99.90;;;;;;5069020;28;20201;-69
2021/04/04 04:10:20;;;;;;;10.90;3.42;;;7.00;99.90;;;;;;5070612;28;20201;-68
2021/04/04 04:12:48;;;;;;;11.95;5.13;;;7.10;99.90;;;;;;5068219;28;20532;-70
2021/04/04 04:15:16;;;;;;;11.15;4.40;;;7.10;99.90;;;;;;5059749;28;20235;-68
2021/04/04 04:17:47;;;;;;;13.85;4.72;;;7.20;99.90;;;;;;5066716;28;20197;-70
2021/04/04 04:20:14;;;;;;;16.65;4.55;;;7.00;99.90;;;;;;5069233;28;20204;-68
2021/04/04 04:22:42;;;;;;;12.20;3.50;;;7.10;99.90;;;;;;5060097;28;20199;-70
2021/04/04 04:25:12;;;;;;;16.35;4.63;;;7.00;99.90;;;;;;5064282;28;20200;-69
2021/04/04 04:27:39;;;;;;;11.45;3.72;;;7.00;99.90;;;;;;5061075;28;20577;-67
2021/04/04 04:30:08;;;;;;;15.30;4.70;;;7.00;99.90;;;;;;5063280;28;20214;-68
2021/04/04 04:32:38;;;;;;;15.40;4.20;;;7.00;99.90;;;;;;5060194;28;20200;-69
2021/04/04 04:35:08;;;;;;;11.90;5.45;;;7.00;99.90;;;;;;5074632;28;20219;-68
2021/04/04 04:37:36;;;;;;;11.73;3.78;;;7.00;99.90;;;;;;5071064;28;20205;-69
2021/04/04 04:40:09;;;;;;;11.93;3.80;;;7.10;99.90;;;;;;5074338;28;20200;-67
2021/04/04 04:42:39;;;;;;;14.23;4.43;;;7.10;99.90;;;;;;5061300;28;20213;-69
2021/04/04 04:45:12;;;;;;;11.18;4.00;;;7.10;99.90;;;;;;5062506;28;20250;-68
2021/04/04 04:47:39;;;;;;;18.50;4.30;;;7.10;99.90;;;;;;5055445;28;20200;-68
2021/04/04 04:50:08;;;;;;;15.35;4.10;;;7.10;99.90;;;;;;5074544;28;20256;-68
2021/04/04 04:52:35;;;;;;;12.68;5.75;;;7.10;99.90;;;;;;5075024;28;20722;-69
2021/04/04 04:55:06;;;;;;;14.70;5.65;;;7.00;99.90;;;;;;5060875;28;20266;-70
2021/04/04 04:57:33;;;;;;;8.18;3.55;;;6.90;99.90;;;;;;5062191;28;20196;-68
2021/04/04 05:00:01;;;;;;;14.95;4.93;;;6.80;99.90;;;;;;5063966;28;20854;-68
2021/04/04 05:02:28;;;;;;;9.38;4.15;;;6.90;99.90;;;;;;5068258;28;20199;-69
2021/04/04 05:04:55;;;;;;;9.18;4.45;;;6.90;99.90;;;;;;5072384;28;20724;-69
2021/04/04 05:07:23;;;;;;;13.05;4.95;;;6.80;99.90;;;;;;5057951;28;20199;-70
2021/04/04 05:09:50;;;;;;;9.05;4.03;;;6.90;99.90;;;;;;5071321;28;20244;-70
2021/04/04 05:12:21;;;;;;;14.23;4.05;;;6.80;99.90;;;;;;5074361;28;20210;-69
2021/04/04 05:14:47;;;;;;;9.63;3.88;;;6.80;99.90;;;;;;5069198;28;20627;-70
2021/04/04 05:17:14;;;;;;;11.75;3.60;;;6.80;99.90;;;;;;5074302;28;20226;-70
2021/04/04 05:19:47;;;;;;;14.52;4.43;;;6.80;99.90;;;;;;5073348;28;20199;-70
2021/04/04 05:22:14;;;;;;;16.73;3.75;;;6.90;99.90;;;;;;5064517;28;20202;-69
2021/04/04 05:24:42;;;;;;;7.25;3.38;;;6.90;99.90;;;;;;5061281;28;20222;-70
2021/04/04 05:27:09;;;;;;;14.38;4.05;;;6.90;99.90;;;;;;5059284;28;20236;-70
2021/04/04 05:29:36;;;;;;;10.57;3.50;;;6.90;99.90;;;;;;5073958;28;20210;-70
2021/04/04 05:32:02;;;;;;;8.02;3.55;;;6.90;99.90;;;;;;5070567;28;20202;-70
2021/04/04 05:34:30;;;;;;;9.27;4.78;;;6.90;99.90;;;;;;5065279;28;20715;-70
2021/04/04 05:36:58;;;;;;;20.05;3.67;;;6.90;99.90;;;;;;5064905;28;20691;-70
2021/04/04 05:39:28;;;;;;;11.63;4.15;;;7.00;99.90;;;;;;5062091;28;20199;-67
2021/04/04 05:41:57;;;;;;;8.30;4.88;;;7.00;99.90;;;;;;5056787;28;20268;-71
2021/04/04 05:44:31;;;;;;;10.23;3.80;;;7.00;99.90;;;;;;5059475;28;20205;-70
2021/04/04 05:47:04;;;;;;;14.77;5.40;;;7.00;99.90;;;;;;5065418;28;20601;-68
2021/04/04 05:49:54;;;;;;;12.23;3.85;;;6.90;99.90;;;;;;5060496;28;20345;-68
2021/04/04 05:52:33;;;;;;;12.32;5.75;;;6.90;99.90;;;;;;5073740;28;20199;-69
2021/04/04 05:55:11;;;;;;;10.52;6.50;;;7.00;99.90;;;;;;5044458;28;20225;-69
2021/04/04 05:57:46;;;;;;;11.40;5.50;;;7.00;99.90;;;;;;5041299;28;20203;-68
2021/04/04 06:00:15;;;;;;;11.43;6.18;;;7.00;99.90;;;;;;5051680;28;20663;-69
2021/04/04 06:03:34;;;;;;;12.93;5.22;;;7.00;99.90;;;;;;5064121;28;20250;-68
2021/04/04 06:06:30;;;;;;;12.75;5.32;;;6.90;99.90;;;;;;5069348;28;20717;-67
2021/04/04 06:09:23;;;;;;;17.42;6.40;;;6.80;99.90;;;;;;5048578;28;20673;-68
2021/04/04 06:12:09;;;;;;;11.55;5.50;;;6.80;99.90;;;;;;5060901;28;20257;-70
2021/04/04 06:14:54;;;;;;;17.73;6.13;;;6.70;99.90;;;;;;5064049;28;20721;-68
2021/04/04 06:17:33;;;;;;;14.57;6.03;;;6.70;99.90;;;;;;5047297;28;20625;-68
2021/04/04 06:20:12;;;;;;;17.05;6.05;;;6.70;99.90;;;;;;5047322;28;20555;-68
2021/04/04 06:22:47;;;;;;;17.63;6.85;;;6.60;99.90;;;;;;5068979;28;20252;-71
2021/04/04 06:25:27;;;;;;;17.83;7.65;;;6.60;99.90;;;;;;5073025;28;20206;-70
2021/04/04 06:28:03;;;;;;;20.58;6.88;;;6.70;99.90;;;;;;5050179;28;20216;-69
2021/04/04 06:30:49;;;;;;;19.20;7.40;;;6.60;99.90;;;;;;5068071;28;20195;-68
2021/04/04 06:33:23;;;;;;;17.13;7.13;;;6.70;99.90;;;;;;5066104;28;20206;-68
2021/04/04 06:36:17;;;;;;;13.10;6.57;;;6.70;99.90;;;;;;5070372;28;20223;-67
2021/04/04 06:39:03;;;;;;;17.15;7.15;;;6.70;99.90;;;;;;5063650;28;20203;-70
2021/04/04 06:41:43;;;;;;;14.32;8.20;;;6.60;99.90;;;;;;5071203;28;20203;-69
2021/04/04 06:44:19;;;;;;;26.13;8.15;;;6.60;99.90;;;;;;5068692;28;20202;-69
2021/04/04 06:46:59;;;;;;;15.32;7.20;;;6.60;99.90;;;;;;5054951;28;20222;-68
2021/04/04 06:49:41;;;;;;;16.02;6.78;;;6.60;99.90;;;;;;5066071;28;20574;-68
2021/04/04 06:52:26;;;;;;;17.05;7.35;;;6.60;99.90;;;;;;5043518;28;20550;-69
2021/04/04 06:55:02;;;;;;;15.63;6.90;;;6.60;99.90;;;;;;5071532;28;20226;-68
2021/04/04 06:57:49;;;;;;;19.58;7.38;;;6.60;99.90;;;;;;5060488;28;20210;-69
2021/04/04 07:00:21;;;;;;;13.88;6.15;;;6.80;99.90;;;;;;5067676;28;20553;-69
2021/04/04 07:02:59;;;;;;;16.65;6.28;;;7.20;99.90;;;;;;5067522;28;20247;-68
2021/04/04 07:05:31;;;;;;;14.70;6.30;;;7.40;99.90;;;;;;5062610;28;20212;-72
2021/04/04 07:08:19;;;;;;;14.30;6.38;;;7.60;99.90;;;;;;5068086;28;20209;-69
2021/04/04 07:10:55;;;;;;;13.73;6.32;;;7.60;99.90;;;;;;5062028;28;20716;-69
2021/04/04 07:14:07;;;;;;;14.30;7.35;;;7.70;99.90;;;;;;5047149;28;20200;-70
2021/04/04 07:17:00;;;;;;;12.10;6.25;;;7.60;99.90;;;;;;4983335;28;20698;-70
2021/04/04 07:19:59;;;;;;;8.95;6.75;;;7.80;99.90;;;;;;4981956;28;20239;-68
2021/04/04 07:22:41;;;;;;;12.25;5.93;;;8.00;99.90;;;;;;5054639;28;20207;-70
2021/04/04 07:25:33;;;;;;;25.40;7.82;;;8.10;99.90;;;;;;5061600;28;20218;-71
2021/04/04 07:28:11;;;;;;;11.23;6.47;;;8.30;99.90;;;;;;5050945;28;20576;-71
2021/04/04 07:30:41;;;;;;;12.90;7.05;;;8.30;99.90;;;;;;5070426;28;20208;-68
2021/04/04 07:33:28;;;;;;;11.25;6.55;;;8.50;99.90;;;;;;5069950;28;20205;-68
2021/04/04 07:36:03;;;;;;;8.05;5.20;;;8.60;99.90;;;;;;5061625;28;20627;-69
2021/04/04 07:38:46;;;;;;;14.52;6.75;;;8.80;99.90;;;;;;5065542;28;20582;-69
2021/04/04 07:41:22;;;;;;;24.75;7.45;;;8.50;99.90;;;;;;5052565;28;20209;-69
2021/04/04 07:43:57;;;;;;;13.02;7.68;;;8.30;99.90;;;;;;5070411;28;20656;-68
2021/04/04 07:46:30;;;;;;;26.75;8.50;;;8.30;99.90;;;;;;5069545;28;20263;-71
2021/04/04 07:49:12;;;;;;;19.67;6.90;;;8.10;99.90;;;;;;5069081;28;20204;-70
2021/04/04 07:51:44;;;;;;;17.27;7.57;;;8.20;99.90;;;;;;5073199;28;20216;-69
2021/04/04 07:54:17;;;;;;;15.45;6.03;;;8.30;99.90;;;;;;5069225;28;20209;-71
2021/04/04 07:56:47;;;;;;;15.10;6.40;;;8.40;99.90;;;;;;5074667;28;20222;-72
2021/04/04 07:59:18;;;;;;;12.70;7.05;;;8.50;99.90;;;;;;5073769;28;20199;-69
2021/04/04 08:01:52;;;;;;;19.23;8.07;;;8.30;99.90;;;;;;5074847;28;20605;-70
2021/04/04 08:04:25;;;;;;;13.38;7.57;;;8.30;99.90;;;;;;5073339;28;20271;-70
2021/04/04 08:07:00;;;;;;;20.67;7.28;;;8.50;99.90;;;;;;5066628;28;20550;-69
2021/04/04 08:09:35;;;;;;;16.00;6.93;;;8.30;99.90;;;;;;5070434;28;20263;-69
2021/04/04 08:12:13;;;;;;;19.50;7.93;;;8.10;99.90;;;;;;5056085;28;20538;-69
2021/04/04 08:14:51;;;;;;;17.80;7.63;;;7.90;99.90;;;;;;5072500;28;20225;-69
2021/04/04 08:17:17;;;;;;;16.02;7.00;;;7.80;99.90;;;;;;5050273;28;20237;-70
2021/04/04 08:19:51;;;;;;;14.05;7.18;;;7.60;99.90;;;;;;5071844;28;20266;-68
2021/04/04 08:22:26;;;;;;;15.02;7.20;;;7.50;99.90;;;;;;5071491;28;20737;-74
2021/04/04 08:24:59;;;;;;;16.75;7.20;;;7.60;99.90;;;;;;5072690;28;20202;-71
2021/04/04 08:27:32;;;;;;;17.45;7.25;;;7.70;99.90;;;;;;5071979;28;20210;-70
2021/04/04 08:30:07;;;;;;;11.63;6.20;;;7.80;99.90;;;;;;5072208;28;20239;-75
2021/04/04 08:32:38;;;;;;;16.42;8.07;;;7.80;99.90;;;;;;5070478;28;20272;-68
2021/04/04 08:35:09;;;;;;;22.13;8.27;;;7.80;99.90;;;;;;5074264;28;20218;-68
2021/04/04 08:37:41;;;;;;;11.63;7.00;;;7.70;99.90;;;;;;5072345;28;20197;-69
2021/04/04 08:40:12;;;;;;;16.58;7.45;;;7.70;99.90;;;;;;5070774;28;20204;-70
2021/04/04 08:42:40;;;;;;;14.95;7.68;;;7.80;99.90;;;;;;5070001;28;20210;-68
2021/04/04 08:45:10;;;;;;;11.98;7.28;;;7.80;99.90;;;;;;5067987;28;20246;-73
2021/04/04 08:47:41;;;;;;;21.15;8.02;;;7.90;99.90;;;;;;5074651;28;20213;-69
2021/04/04 08:50:11;;;;;;;16.75;7.43;;;8.00;99.90;;;;;;5073958;28;20205;-70
2021/04/04 08:52:47;;;;;;;20.67;7.97;;;8.10;99.90;;;;;;5073918;28;20209;-70
2021/04/04 08:55:19;;;;;;;14.73;7.32;;;8.10;99.90;;;;;;5064151;28;20226;-69
2021/04/04 08:57:48;;;;;;;13.30;6.60;;;8.10;99.90;;;;;;5074924;28;20541;-70
2021/04/04 09:00:16;;;;;;;18.17;8.70;;;8.20;99.90;;;;;;5063435;28;20251;-70
2021/04/04 09:02:46;;;;;;;10.98;6.85;;;8.20;99.90;;;;;;5062721;28;20210;-69
2021/04/04 09:05:15;;;;;;;17.65;7.05;;;7.90;99.90;;;;;;5069474;28;20205;-69
2021/04/04 09:07:43;;;;;;;21.50;7.25;;;7.90;99.90;;;;;;5063432;28;20199;-70
2021/04/04 09:10:14;;;;;;;17.92;8.68;;;7.90;99.90;;;;;;5065436;28;20210;-72
2021/04/04 09:12:44;;;;;;;24.42;12.27;;;7.90;99.90;;;;;;5073947;28;20233;-71
2021/04/04 09:15:13;;;;;;;24.02;8.52;;;8.00;99.90;;;;;;5074017;28;20234;-68
2021/04/04 09:17:50;;;;;;;14.88;8.07;;;8.00;99.90;;;;;;5060058;28;20202;-69
2021/04/04 09:20:16;;;;;;;14.55;8.20;;;8.20;99.90;;;;;;5056373;28;20277;-70
2021/04/04 09:22:49;;;;;;;23.33;15.43;;;8.20;99.90;;;;;;5060642;28;20221;-68
2021/04/04 09:25:17;;;;;;;20.88;8.27;;;8.40;99.90;;;;;;5055989;28;20222;-69
2021/04/04 09:27:44;;;;;;;22.02;16.65;;;8.40;99.90;;;;;;5064436;28;20217;-70
2021/04/04 09:30:22;;;;;;;23.55;8.40;;;8.50;99.90;;;;;;5046660;28;20582;-72
2021/04/04 09:32:53;;;;;;;12.80;7.25;;;8.60;99.90;;;;;;5074629;28;20201;-67
2021/04/04 09:35:21;;;;;;;16.35;6.95;;;8.60;99.90;;;;;;5073506;28;20229;-69
2021/04/04 09:37:50;;;;;;;11.95;6.47;;;8.50;99.90;;;;;;5069574;28;20278;-71
2021/04/04 09:40:19;;;;;;;19.75;7.07;;;8.30;99.90;;;;;;5069906;28;20225;-71
2021/04/04 09:42:47;;;;;;;12.65;6.25;;;8.40;99.90;;;;;;5071340;28;20288;-68
2021/04/04 09:45:18;;;;;;;11.60;8.30;;;8.60;99.90;;;;;;5072382;28;20209;-72
2021/04/04 09:47:45;;;;;;;11.13;5.82;;;8.70;99.90;;;;;;5070759;28;20591;-70
2021/04/04 09:50:23;;;;;;;10.90;5.38;;;8.70;99.90;;;;;;5057968;28;20584;-69
2021/04/04 09:52:53;;;;;;;7.20;4.63;;;8.80;99.90;;;;;;5065088;28;20209;-70
2021/04/04 09:55:22;;;;;;;13.13;5.55;;;9.00;99.90;;;;;;5067587;28;20226;-69
2021/04/04 09:57:51;;;;;;;9.68;4.90;;;9.10;99.90;;;;;;5069488;28;20199;-68
2021/04/04 10:00:24;;;;;;;10.07;5.75;;;9.20;99.90;;;;;;5065904;28;20238;-72
2021/04/04 10:02:52;;;;;;;9.45;5.88;;;9.10;99.90;;;;;;5068987;28;20245;-69
2021/04/04 10:05:34;;;;;;;8.32;5.05;;;9.00;99.90;;;;;;5070661;28;20219;-68
2021/04/04 10:08:12;;;;;;;13.35;5.60;;;9.30;99.90;;;;;;5068514;28;20199;-69
2021/04/04 10:10:42;;;;;;;13.95;4.93;;;9.30;99.90;;;;;;5069837;28;20290;-68
2021/04/04 10:13:09;;;;;;;7.13;5.43;;;9.20;99.90;;;;;;5064853;28;20222;-70
2021/04/04 10:15:43;;;;;;;9.48;4.85;;;9.50;99.90;;;;;;5066377;28;20231;-69
2021/04/04 10:18:11;;;;;;;10.50;5.82;;;9.70;99.90;;;;;;5067767;28;20203;-70
2021/04/04 10:20:40;;;;;;;10.93;4.95;;;9.80;99.90;;;;;;5067745;28;20242;-69
2021/04/04 10:23:08;;;;;;;11.43;6.25;;;9.80;99.90;;;;;;5071426;28;20205;-69
2021/04/04 10:25:37;;;;;;;21.75;5.68;;;9.80;99.90;;;;;;5066448;28;20219;-70
2021/04/04 10:28:06;;;;;;;12.35;5.63;;;9.80;99.90;;;;;;5065879;28;20207;-69
2021/04/04 10:30:34;;;;;;;13.98;6.00;;;9.80;99.90;;;;;;5070307;28;20194;-70
2021/04/04 10:33:18;;;;;;;10.98;4.47;;;10.10;99.90;;;;;;5066895;28;20208;-69
2021/04/04 10:35:45;;;;;;;12.38;5.57;;;10.00;99.90;;;;;;5059703;28;20225;-70
2021/04/04 10:38:14;;;;;;;9.07;5.07;;;10.20;99.90;;;;;;5055259;28;20204;-75
2021/04/04 10:40:50;;;;;;;9.98;5.00;;;10.30;99.90;;;;;;5061809;28;20233;-73
2021/04/04 10:43:19;;;;;;;10.30;5.45;;;10.30;99.50;;;;;;5064309;28;20302;-74
2021/04/04 10:46:05;;;;;;;7.20;5.10;;;10.50;99.40;;;;;;5072695;28;20219;-71
2021/04/04 10:48:33;;;;;;;6.22;4.22;;;10.70;99.10;;;;;;5065070;28;20205;-73
2021/04/04 10:51:00;;;;;;;13.88;4.53;;;10.60;98.50;;;;;;5066421;28;20198;-73
2021/04/04 10:53:28;;;;;;;12.75;5.05;;;10.50;98.90;;;;;;5065852;28;20253;-73
2021/04/04 10:55:56;;;;;;;12.85;5.57;;;10.50;98.70;;;;;;5066145;28;20352;-74
2021/04/04 10:58:25;;;;;;;10.93;4.90;;;10.30;98.80;;;;;;5070664;28;20297;-73
2021/04/04 11:00:52;;;;;;;14.70;4.97;;;10.30;99.30;;;;;;5068634;28;20657;-73
2021/04/04 11:03:20;;;;;;;12.82;5.00;;;10.20;99.80;;;;;;5066250;28;20289;-75
2021/04/04 11:05:48;;;;;;;15.95;5.35;;;10.40;99.70;;;;;;5069625;28;20308;-74
2021/04/04 11:08:15;;;;;;;10.35;4.75;;;10.50;99.10;;;;;;5061545;28;20203;-74
2021/04/04 11:10:42;;;;;;;14.88;5.90;;;10.50;99.20;;;;;;5056811;28;20203;-74
2021/04/04 11:13:12;;;;;;;16.17;6.00;;;10.40;99.70;;;;;;5068026;28;20252;-71
2021/04/04 11:15:43;;;;;;;10.70;4.22;;;10.20;99.70;;;;;;5061057;28;20226;-72
2021/04/04 11:18:13;;;;;;;13.20;4.78;;;10.30;99.90;;;;;;5071723;28;20202;-73
2021/04/04 11:20:42;;;;;;;11.93;4.55;;;10.20;99.90;;;;;;5071828;28;20284;-79
2021/04/04 11:23:10;;;;;;;10.45;5.15;;;10.20;99.90;;;;;;5068205;28;20256;-71
2021/04/04 11:25:37;;;;;;;7.75;3.92;;;10.20;99.90;;;;;;5067461;28;20218;-74
2021/04/04 11:28:16;;;;;;;11.68;6.00;;;10.10;99.90;;;;;;5075376;28;20218;-73
2021/04/04 11:30:44;;;;;;;8.02;5.65;;;10.30;99.90;;;;;;5071731;28;20199;-74
2021/04/04 11:33:35;;;;;;;13.38;5.90;;;10.10;99.90;;;;;;5073775;28;20207;-73
2021/04/04 11:36:09;;;;;;;13.85;6.28;;;9.80;99.90;;;;;;5053857;28;20222;-76
2021/04/04 11:38:39;;;;;;;16.25;8.20;;;9.70;99.90;;;;;;5073804;28;20335;-74
2021/04/04 11:41:19;;;;;;;13.68;8.25;;;9.70;99.90;;;;;;5077505;28;20675;-77
2021/04/04 11:43:48;;;;;;;15.63;7.00;;;9.70;99.90;;;;;;5074808;28;20202;-72
2021/04/04 11:46:40;;;;;;;13.85;7.43;;;9.60;99.90;;;;;;5073864;28;20297;-74
2021/04/04 11:49:34;;;;;;;16.80;8.20;;;9.60;99.90;;;;;;5062444;28;20203;-72
2021/04/04 11:52:21;;;;;;;10.98;7.60;;;9.60;99.90;;;;;;5070979;28;20257;-73
2021/04/04 11:54:51;;;;;;;12.77;7.13;;;9.80;99.90;;;;;;5064638;28;20275;-73
2021/04/04 11:57:20;;;;;;;11.95;7.68;;;10.00;99.90;;;;;;5073403;28;20226;-75
2021/04/04 11:59:49;;;;;;;14.98;8.63;;;9.80;99.90;;;;;;5075033;28;20297;-74
2021/04/04 12:02:17;;;;;;;12.18;7.38;;;9.70;99.90;;;;;;5075323;28;20202;-74
2021/04/04 12:04:47;;;;;;;10.88;7.38;;;9.50;99.90;;;;;;5075351;28;20214;-74
2021/04/04 12:07:15;;;;;;;10.02;6.82;;;9.40;99.90;;;;;;5065188;28;20264;-76
2021/04/04 12:09:44;;;;;;;27.02;7.82;;;9.50;99.90;;;;;;5071247;28;20301;-74
2021/04/04 12:12:11;;;;;;;21.52;8.07;;;9.50;99.90;;;;;;5073059;28;20199;-75
2021/04/04 12:14:50;;;;;;;13.98;7.00;;;9.70;99.90;;;;;;5073253;28;20286;-74
2021/04/04 12:17:18;;;;;;;14.95;6.75;;;9.60;99.90;;;;;;5076031;28;20223;-75
2021/04/04 12:19:47;;;;;;;17.30;8.23;;;9.50;99.90;;;;;;5073064;28;20434;-73
2021/04/04 12:22:15;;;;;;;13.80;7.20;;;9.70;99.90;;;;;;5071299;28;20207;-74
2021/04/04 12:24:43;;;;;;;14.10;6.72;;;10.00;99.90;;;;;;5073217;28;20442;-73
2021/04/04 12:27:10;;;;;;;11.65;7.68;;;10.10;99.90;;;;;;5074406;28;20309;-75
2021/04/04 12:29:42;;;;;;;17.60;7.22;;;10.10;99.90;;;;;;5072561;28;20344;-74
2021/04/04 12:32:10;;;;;;;13.30;6.15;;;10.10;99.90;;;;;;5071987;28;20202;-74
2021/04/04 12:34:41;;;;;;;25.58;7.30;;;10.20;99.90;;;;;;5071427;28;20203;-75
2021/04/04 12:40:30;;;;;;;13.05;6.68;;;9.70;99.90;;;;;;5067836;28;20219;-74
2021/04/04 12:42:59;;;;;;;12.48;6.18;;;9.70;99.90;;;;;;5071204;28;20199;-77
2021/04/04 12:45:30;;;;;;;15.05;5.90;;;10.00;99.90;;;;;;5072089;28;20220;-73
2021/04/04 12:48:00;;;;;;;12.82;5.93;;;10.20;99.90;;;;;;5070680;28;20222;-75
2021/04/04 12:50:27;;;;;;;13.40;7.00;;;10.10;99.90;;;;;;5069328;28;20199;-75
2021/04/04 12:52:54;;;;;;;17.48;6.30;;;10.30;99.90;;;;;;5072419;28;20199;-75
2021/04/04 12:55:25;;;;;;;16.40;6.60;;;10.30;99.90;;;;;;5071468;28;20235;-76
2021/04/04 12:57:58;;;;;;;11.73;6.78;;;10.40;99.90;;;;;;5075959;28;20206;-75
2021/04/04 13:00:27;;;;;;;15.05;6.78;;;10.10;99.90;;;;;;5067580;28;20213;-72
2021/04/04 13:03:00;;;;;;;13.25;6.30;;;9.90;99.90;;;;;;5069587;28;20210;-71
2021/04/04 13:05:33;;;;;;;12.60;6.88;;;9.80;99.90;;;;;;5071304;28;20289;-71
2021/04/04 13:08:00;;;;;;;12.43;5.40;;;9.60;99.90;;;;;;5063320;28;20210;-71
2021/04/04 13:10:27;;;;;;;15.55;7.75;;;9.60;99.90;;;;;;5060269;28;20195;-72
2021/04/04 13:12:55;;;;;;;13.65;6.60;;;9.70;99.90;;;;;;5068809;28;20199;-73